TimeCDT,TemperatureF,Dew PointF,Humidity,Sea Level PressureIn,VisibilityMPH,Wind Direction,Wind SpeedMPH,Gust SpeedMPH,PrecipitationIn,Events,Conditions,WindDirDegrees,DateUTC
12:15 AM,50.0,39.2,66,29.91,10.0,WSW,11.5,-,0.03,,Overcast,240,2013-05-04 05:15:00
12:35 AM,48.2,39.2,71,29.92,10.0,SW,13.8,-,0.05,,Overcast,220,2013-05-04 05:35:00
12:55 AM,48.2,39.2,71,29.91,10.0,SW,6.9,-,0.05,,Overcast,230,2013-05-04 05:55:00
1:15 AM,46.4,39.2,76,29.90,10.0,SW,4.6,-,N/A,,Overcast,220,2013-05-04 06:15:00
1:35 AM,44.6,37.4,76,29.90,10.0,SW,10.4,-,0.03,,Overcast,220,2013-05-04 06:35:00
1:55 AM,46.4,37.4,71,29.89,10.0,SW,9.2,-,0.07,,Overcast,220,2013-05-04 06:55:00
2:15 AM,46.4,37.4,71,29.91,10.0,SW,11.5,-,0.03,,Overcast,220,2013-05-04 07:15:00
2:35 AM,46.4,35.6,66,29.89,10.0,WSW,8.1,-,0.06,,Overcast,240,2013-05-04 07:35:00
3:15 AM,46.4,35.6,66,29.89,10.0,WSW,6.9,-,N/A,,Overcast,240,2013-05-04 08:15:00
3:35 AM,46.4,35.6,66,29.88,10.0,SW,6.9,-,N/A,,Overcast,230,2013-05-04 08:35:00
3:55 AM,44.6,35.6,71,29.89,8.0,WSW,8.1,-,N/A,,Overcast,240,2013-05-04 08:55:00
4:15 AM,44.6,35.6,71,29.89,10.0,WSW,6.9,-,N/A,,Overcast,240,2013-05-04 09:15:00
4:35 AM,44.6,35.6,71,29.89,10.0,SW,8.1,-,N/A,,Overcast,230,2013-05-04 09:35:00
4:55 AM,44.6,35.6,71,29.89,10.0,SW,6.9,-,0.09,,Overcast,230,2013-05-04 09:55:00
5:15 AM,44.6,35.6,71,29.88,10.0,Calm,Calm,-,0.05,,Overcast,0,2013-05-04 10:15:00
5:35 AM,44.6,35.6,71,29.89,8.0,Calm,Calm,-,0.14,,Overcast,0,2013-05-04 10:35:00
5:55 AM,44.6,35.6,71,29.91,10.0,SSW,5.8,-,0.23,,Overcast,200,2013-05-04 10:55:00
6:15 AM,44.6,35.6,71,29.92,10.0,SSW,6.9,-,0.06,,Mostly Cloudy,210,2013-05-04 11:15:00
6:35 AM,44.6,35.6,71,29.91,9.0,WSW,4.6,-,0.13,,Overcast,240,2013-05-04 11:35:00
6:55 AM,44.6,35.6,71,29.91,9.0,West,4.6,-,0.19,,Overcast,280,2013-05-04 11:55:00
7:15 AM,44.6,35.6,71,29.92,10.0,WSW,10.4,-,0.06,,Overcast,240,2013-05-04 12:15:00
7:35 AM,44.6,35.6,71,29.92,10.0,WSW,6.9,-,0.12,,Overcast,250,2013-05-04 12:35:00
7:55 AM,44.6,35.6,71,29.91,10.0,West,5.8,-,0.16,,Overcast,270,2013-05-04 12:55:00
8:15 AM,44.6,35.6,71,29.93,9.0,SW,8.1,-,0.05,,Overcast,230,2013-05-04 13:15:00
8:35 AM,44.6,35.6,71,29.93,10.0,WSW,6.9,-,0.10,,Overcast,250,2013-05-04 13:35:00
8:55 AM,44.6,35.6,71,29.92,10.0,West,4.6,-,0.16,,Overcast,270,2013-05-04 13:55:00
9:15 AM,44.6,35.6,71,29.93,10.0,WSW,9.2,-,0.07,,Overcast,240,2013-05-04 14:15:00
9:35 AM,44.6,35.6,71,29.93,10.0,West,6.9,-,0.10,,Overcast,260,2013-05-04 14:35:00
9:55 AM,44.6,35.6,71,29.94,8.0,WSW,4.6,-,0.12,,Overcast,250,2013-05-04 14:55:00
10:15 AM,44.6,35.6,71,29.94,5.0,West,4.6,-,0.03,,Overcast,270,2013-05-04 15:15:00
10:35 AM,44.6,35.6,71,29.94,10.0,West,5.8,-,0.04,,Mostly Cloudy,260,2013-05-04 15:35:00
10:55 AM,46.4,35.6,66,29.95,10.0,WSW,6.9,-,0.04,,Overcast,240,2013-05-04 15:55:00
11:15 AM,46.4,35.6,66,29.96,8.0,SW,9.2,-,0.01,,Overcast,220,2013-05-04 16:15:00
11:35 AM,46.4,35.6,66,29.96,10.0,WSW,6.9,-,0.02,,Overcast,250,2013-05-04 16:35:00
11:55 AM,46.4,35.6,66,29.96,10.0,SW,6.9,-,0.03,,Overcast,230,2013-05-04 16:55:00
12:15 PM,46.4,37.4,71,29.96,10.0,SW,5.8,-,N/A,,Overcast,220,2013-05-04 17:15:00
12:35 PM,46.4,37.4,71,29.97,10.0,WSW,5.8,-,N/A,,Overcast,250,2013-05-04 17:35:00
12:55 PM,46.4,37.4,71,29.96,10.0,WSW,6.9,-,N/A,,Overcast,240,2013-05-04 17:55:00
1:15 PM,46.4,37.4,71,29.97,10.0,SSW,8.1,-,N/A,,Overcast,210,2013-05-04 18:15:00
1:35 PM,46.4,35.6,66,29.97,10.0,SSW,4.6,-,N/A,,Overcast,200,2013-05-04 18:35:00
1:55 PM,48.2,35.6,62,29.97,10.0,South,4.6,-,N/A,,Overcast,190,2013-05-04 18:55:00
2:15 PM,48.2,35.6,62,29.96,10.0,SSE,3.5,-,N/A,,Overcast,160,2013-05-04 19:15:00
2:35 PM,48.2,35.6,62,29.97,10.0,SSE,3.5,-,N/A,,Overcast,150,2013-05-04 19:35:00
2:55 PM,48.2,35.6,62,29.96,10.0,ESE,4.6,-,N/A,,Overcast,120,2013-05-04 19:55:00
3:15 PM,48.2,35.6,62,29.96,10.0,ESE,5.8,-,N/A,,Overcast,120,2013-05-04 20:15:00
3:35 PM,48.2,37.4,66,29.97,10.0,ESE,3.5,-,N/A,,Overcast,120,2013-05-04 20:35:00
3:55 PM,48.2,37.4,66,29.96,10.0,South,4.6,-,N/A,,Mostly Cloudy,170,2013-05-04 20:55:00
4:15 PM,48.2,37.4,66,29.96,10.0,South,3.5,-,N/A,,Overcast,180,2013-05-04 21:15:00
4:35 PM,48.2,37.4,66,29.97,7.0,SSW,5.8,-,N/A,,Overcast,200,2013-05-04 21:35:00
4:55 PM,48.2,37.4,66,29.97,10.0,SW,5.8,-,N/A,,Overcast,220,2013-05-04 21:55:00
5:15 PM,48.2,37.4,66,29.97,5.0,SSW,5.8,-,0.01,,Overcast,210,2013-05-04 22:15:00
5:35 PM,48.2,37.4,66,29.98,8.0,SSW,5.8,-,0.01,,Overcast,210,2013-05-04 22:35:00
5:55 PM,48.2,37.4,66,29.98,10.0,SW,6.9,-,0.01,,Overcast,220,2013-05-04 22:55:00
6:15 PM,48.2,37.4,66,29.98,10.0,SW,4.6,-,0.01,,Overcast,220,2013-05-04 23:15:00
6:35 PM,48.2,37.4,66,29.98,10.0,WSW,4.6,-,0.01,,Overcast,240,2013-05-04 23:35:00
6:55 PM,48.2,37.4,66,29.98,10.0,WSW,5.8,-,0.01,,Overcast,240,2013-05-04 23:55:00
7:15 PM,46.4,37.4,71,29.98,10.0,West,4.6,-,N/A,,Overcast,270,2013-05-05 00:15:00
7:35 PM,46.4,37.4,71,29.98,10.0,West,5.8,-,N/A,,Overcast,270,2013-05-05 00:35:00
7:55 PM,46.4,37.4,71,29.99,10.0,West,4.6,-,N/A,,Overcast,260,2013-05-05 00:55:00
8:15 PM,46.4,37.4,71,29.99,10.0,West,3.5,-,N/A,,Overcast,260,2013-05-05 01:15:00
8:35 PM,46.4,37.4,71,29.99,10.0,WNW,3.5,-,N/A,,Overcast,290,2013-05-05 01:35:00
8:55 PM,46.4,37.4,71,30.00,10.0,Calm,Calm,-,N/A,,Overcast,0,2013-05-05 01:55:00
9:15 PM,46.4,37.4,71,30.00,10.0,NNW,3.5,-,N/A,,Overcast,340,2013-05-05 02:15:00
9:35 PM,46.4,37.4,71,29.99,10.0,North,4.6,-,N/A,,Overcast,350,2013-05-05 02:35:00
9:55 PM,46.4,35.6,66,29.99,10.0,North,3.5,-,N/A,,Overcast,360,2013-05-05 02:55:00
10:15 PM,46.4,37.4,71,29.98,9.0,North,3.5,-,N/A,,Overcast,350,2013-05-05 03:15:00
10:35 PM,46.4,37.4,71,30.00,9.0,Calm,Calm,-,N/A,,Overcast,0,2013-05-05 03:35:00
10:55 PM,46.4,37.4,71,29.99,10.0,NNE,3.5,-,N/A,,Overcast,30,2013-05-05 03:55:00
11:15 PM,46.4,37.4,71,29.98,10.0,NNE,3.5,-,N/A,,Overcast,20,2013-05-05 04:15:00
11:35 PM,46.4,37.4,71,29.98,10.0,Calm,Calm,-,N/A,,Overcast,0,2013-05-05 04:35:00
11:55 PM,46.4,35.6,66,29.97,10.0,NNW,4.6,-,N/A,,Overcast,340,2013-05-05 04:55:00